sensor_id;sensor_type;location;lat;lon;timestamp;temperature;humidity
63051;SHT30;49136;47.416;19.402;2023-04-06T00:01:28;-0.31;70.13
63051;SHT30;49136;47.416;19.402;2023-04-06T00:03:54;-0.36;70.26
63051;SHT30;49136;47.416;19.402;2023-04-06T00:06:20;-0.34;70.25
63051;SHT30;49136;47.416;19.402;2023-04-06T00:08:45;-0.48;70.68
63051;SHT30;49136;47.416;19.402;2023-04-06T00:11:11;-0.55;70.93
63051;SHT30;49136;47.416;19.402;2023-04-06T00:13:36;-0.70;71.54
63051;SHT30;49136;47.416;19.402;2023-04-06T00:16:02;-0.81;72.29
63051;SHT30;49136;47.416;19.402;2023-04-06T00:18:28;-0.97;72.95
63051;SHT30;49136;47.416;19.402;2023-04-06T00:20:53;-1.12;73.83
63051;SHT30;49136;47.416;19.402;2023-04-06T00:23:18;-1.28;75.53
63051;SHT30;49136;47.416;19.402;2023-04-06T00:25:44;-1.34;75.37
63051;SHT30;49136;47.416;19.402;2023-04-06T00:28:09;-1.25;75.00
63051;SHT30;49136;47.416;19.402;2023-04-06T00:30:35;-1.42;76.65
63051;SHT30;49136;47.416;19.402;2023-04-06T00:33:00;-1.24;74.83
63051;SHT30;49136;47.416;19.402;2023-04-06T00:35:26;-1.40;75.24
63051;SHT30;49136;47.416;19.402;2023-04-06T00:37:51;-1.49;75.45
63051;SHT30;49136;47.416;19.402;2023-04-06T00:40:17;-1.52;76.12
63051;SHT30;49136;47.416;19.402;2023-04-06T00:42:42;-1.64;77.05
63051;SHT30;49136;47.416;19.402;2023-04-06T00:45:08;-1.68;77.21
63051;SHT30;49136;47.416;19.402;2023-04-06T00:47:34;-1.82;80.34
63051;SHT30;49136;47.416;19.402;2023-04-06T00:50:00;-1.92;79.70
63051;SHT30;49136;47.416;19.402;2023-04-06T00:52:25;-2.01;79.82
63051;SHT30;49136;47.416;19.402;2023-04-06T00:54:51;-2.10;78.87
63051;SHT30;49136;47.416;19.402;2023-04-06T00:57:17;-2.05;79.88
63051;SHT30;49136;47.416;19.402;2023-04-06T00:59:43;-2.10;81.31
63051;SHT30;49136;47.416;19.402;2023-04-06T01:02:09;-2.21;81.79
63051;SHT30;49136;47.416;19.402;2023-04-06T01:04:34;-2.09;80.37
63051;SHT30;49136;47.416;19.402;2023-04-06T01:07:00;-2.16;80.07
63051;SHT30;49136;47.416;19.402;2023-04-06T01:09:29;-2.09;80.28
63051;SHT30;49136;47.416;19.402;2023-04-06T01:11:56;-2.15;80.20
63051;SHT30;49136;47.416;19.402;2023-04-06T01:14:22;-2.19;80.35
63051;SHT30;49136;47.416;19.402;2023-04-06T01:16:48;-2.25;80.98
63051;SHT30;49136;47.416;19.402;2023-04-06T01:19:14;-2.33;82.05
63051;SHT30;49136;47.416;19.402;2023-04-06T01:21:40;-2.34;81.42
63051;SHT30;49136;47.416;19.402;2023-04-06T01:24:06;-2.41;81.33
63051;SHT30;49136;47.416;19.402;2023-04-06T01:26:32;-2.47;82.01
63051;SHT30;49136;47.416;19.402;2023-04-06T01:28:58;-2.57;82.85
63051;SHT30;49136;47.416;19.402;2023-04-06T01:31:24;-2.61;82.48
63051;SHT30;49136;47.416;19.402;2023-04-06T01:33:50;-2.65;82.96
63051;SHT30;49136;47.416;19.402;2023-04-06T01:36:16;-2.69;82.62
63051;SHT30;49136;47.416;19.402;2023-04-06T01:38:41;-2.74;83.30
63051;SHT30;49136;47.416;19.402;2023-04-06T01:41:07;-2.71;83.20
63051;SHT30;49136;47.416;19.402;2023-04-06T01:43:33;-2.62;82.68
63051;SHT30;49136;47.416;19.402;2023-04-06T01:45:59;-2.64;82.53
63051;SHT30;49136;47.416;19.402;2023-04-06T01:48:25;-2.68;82.09
63051;SHT30;49136;47.416;19.402;2023-04-06T01:50:50;-2.74;82.30
63051;SHT30;49136;47.416;19.402;2023-04-06T01:53:16;-2.71;82.11
63051;SHT30;49136;47.416;19.402;2023-04-06T01:55:41;-2.75;82.52
63051;SHT30;49136;47.416;19.402;2023-04-06T01:58:06;-2.79;83.04
63051;SHT30;49136;47.416;19.402;2023-04-06T02:00:32;-2.89;83.21
63051;SHT30;49136;47.416;19.402;2023-04-06T02:02:57;-2.92;83.56
63051;SHT30;49136;47.416;19.402;2023-04-06T02:05:23;-2.95;83.44
63051;SHT30;49136;47.416;19.402;2023-04-06T02:07:48;-3.04;83.74
63051;SHT30;49136;47.416;19.402;2023-04-06T02:10:14;-2.97;83.48
63051;SHT30;49136;47.416;19.402;2023-04-06T02:12:40;-2.92;82.81
63051;SHT30;49136;47.416;19.402;2023-04-06T02:15:06;-2.99;82.87
63051;SHT30;49136;47.416;19.402;2023-04-06T02:17:31;-2.89;82.77
63051;SHT30;49136;47.416;19.402;2023-04-06T02:19:57;-3.03;82.69
63051;SHT30;49136;47.416;19.402;2023-04-06T02:22:23;-3.04;83.14
63051;SHT30;49136;47.416;19.402;2023-04-06T02:24:48;-3.02;83.00
63051;SHT30;49136;47.416;19.402;2023-04-06T02:27:14;-2.95;82.55
63051;SHT30;49136;47.416;19.402;2023-04-06T02:29:39;-2.97;82.65
63051;SHT30;49136;47.416;19.402;2023-04-06T02:32:05;-3.04;82.81
63051;SHT30;49136;47.416;19.402;2023-04-06T02:34:31;-3.16;82.97
63051;SHT30;49136;47.416;19.402;2023-04-06T02:36:56;-3.20;84.11
63051;SHT30;49136;47.416;19.402;2023-04-06T02:39:22;-3.23;85.22
63051;SHT30;49136;47.416;19.402;2023-04-06T02:41:47;-3.24;84.85
63051;SHT30;49136;47.416;19.402;2023-04-06T02:44:13;-3.30;85.89
63051;SHT30;49136;47.416;19.402;2023-04-06T02:46:38;-3.36;86.05
63051;SHT30;49136;47.416;19.402;2023-04-06T02:49:04;-3.38;85.82
63051;SHT30;49136;47.416;19.402;2023-04-06T02:51:30;-3.38;86.01
63051;SHT30;49136;47.416;19.402;2023-04-06T02:53:55;-3.40;85.87
63051;SHT30;49136;47.416;19.402;2023-04-06T02:56:20;-3.44;86.12
63051;SHT30;49136;47.416;19.402;2023-04-06T02:58:47;-3.45;87.15
63051;SHT30;49136;47.416;19.402;2023-04-06T03:01:12;-3.43;86.25
63051;SHT30;49136;47.416;19.402;2023-04-06T03:03:37;-3.43;86.08
63051;SHT30;49136;47.416;19.402;2023-04-06T03:06:03;-3.44;85.94
63051;SHT30;49136;47.416;19.402;2023-04-06T03:08:28;-3.50;86.11
63051;SHT30;49136;47.416;19.402;2023-04-06T03:10:54;-3.55;87.18
63051;SHT30;49136;47.416;19.402;2023-04-06T03:13:20;-3.61;87.83
63051;SHT30;49136;47.416;19.402;2023-04-06T03:15:45;-3.59;87.89
63051;SHT30;49136;47.416;19.402;2023-04-06T03:18:11;-3.61;87.67
63051;SHT30;49136;47.416;19.402;2023-04-06T03:20:36;-3.59;87.28
63051;SHT30;49136;47.416;19.402;2023-04-06T03:23:02;-3.62;87.60
63051;SHT30;49136;47.416;19.402;2023-04-06T03:25:27;-3.58;87.40
63051;SHT30;49136;47.416;19.402;2023-04-06T03:27:53;-3.58;87.48
63051;SHT30;49136;47.416;19.402;2023-04-06T03:30:19;-3.61;88.28
63051;SHT30;49136;47.416;19.402;2023-04-06T03:32:45;-3.61;87.51
63051;SHT30;49136;47.416;19.402;2023-04-06T03:35:10;-3.65;88.04
63051;SHT30;49136;47.416;19.402;2023-04-06T03:37:36;-3.68;89.19
63051;SHT30;49136;47.416;19.402;2023-04-06T03:40:02;-3.68;88.64
63051;SHT30;49136;47.416;19.402;2023-04-06T03:42:28;-3.68;88.32
63051;SHT30;49136;47.416;19.402;2023-04-06T03:44:53;-3.71;88.65
63051;SHT30;49136;47.416;19.402;2023-04-06T03:47:19;-3.73;89.17
63051;SHT30;49136;47.416;19.402;2023-04-06T03:49:45;-3.76;88.90
63051;SHT30;49136;47.416;19.402;2023-04-06T03:52:10;-3.76;89.59
63051;SHT30;49136;47.416;19.402;2023-04-06T03:54:36;-3.48;88.61
63051;SHT30;49136;47.416;19.402;2023-04-06T03:57:02;-3.51;88.31
63051;SHT30;49136;47.416;19.402;2023-04-06T03:59:27;-3.55;88.60
63051;SHT30;49136;47.416;19.402;2023-04-06T04:01:52;-3.56;88.56
63051;SHT30;49136;47.416;19.402;2023-04-06T04:04:18;-3.45;87.83
63051;SHT30;49136;47.416;19.402;2023-04-06T04:06:43;-3.45;87.47
63051;SHT30;49136;47.416;19.402;2023-04-06T04:09:09;-3.45;87.32
63051;SHT30;49136;47.416;19.402;2023-04-06T04:11:35;-3.52;87.59
63051;SHT30;49136;47.416;19.402;2023-04-06T04:14:00;-3.52;88.80
63051;SHT30;49136;47.416;19.402;2023-04-06T04:16:25;-3.54;89.80
63051;SHT30;49136;47.416;19.402;2023-04-06T04:18:51;-3.55;88.96
63051;SHT30;49136;47.416;19.402;2023-04-06T04:21:16;-3.52;89.55
63051;SHT30;49136;47.416;19.402;2023-04-06T04:23:42;-3.51;89.55
63051;SHT30;49136;47.416;19.402;2023-04-06T04:26:07;-3.47;88.76
63051;SHT30;49136;47.416;19.402;2023-04-06T04:28:32;-3.47;88.87
63051;SHT30;49136;47.416;19.402;2023-04-06T04:30:58;-3.36;88.40
63051;SHT30;49136;47.416;19.402;2023-04-06T04:33:23;-3.28;88.61
63051;SHT30;49136;47.416;19.402;2023-04-06T04:35:49;-3.19;89.25
63051;SHT30;49136;47.416;19.402;2023-04-06T04:38:14;-3.13;88.34
63051;SHT30;49136;47.416;19.402;2023-04-06T04:40:40;-3.00;87.21
63051;SHT30;49136;47.416;19.402;2023-04-06T04:43:05;-2.96;87.09
63051;SHT30;49136;47.416;19.402;2023-04-06T04:45:30;-2.84;86.38
63051;SHT30;49136;47.416;19.402;2023-04-06T04:47:56;-2.72;86.03
63051;SHT30;49136;47.416;19.402;2023-04-06T04:50:21;-2.62;85.57
63051;SHT30;49136;47.416;19.402;2023-04-06T04:52:47;-2.47;86.77
63051;SHT30;49136;47.416;19.402;2023-04-06T04:55:13;-2.30;87.64
63051;SHT30;49136;47.416;19.402;2023-04-06T04:57:38;-2.19;86.95
63051;SHT30;49136;47.416;19.402;2023-04-06T05:00:04;-2.05;86.77
63051;SHT30;49136;47.416;19.402;2023-04-06T05:02:30;-1.92;86.74
63051;SHT30;49136;47.416;19.402;2023-04-06T05:04:55;-1.74;86.84
63051;SHT30;49136;47.416;19.402;2023-04-06T05:07:21;-1.57;86.60
63051;SHT30;49136;47.416;19.402;2023-04-06T05:09:46;-1.46;86.94
63051;SHT30;49136;47.416;19.402;2023-04-06T05:12:12;-1.32;85.94
63051;SHT30;49136;47.416;19.402;2023-04-06T05:14:37;-1.21;85.56
63051;SHT30;49136;47.416;19.402;2023-04-06T05:17:03;-1.04;85.65
63051;SHT30;49136;47.416;19.402;2023-04-06T05:19:29;-0.88;85.35
63051;SHT30;49136;47.416;19.402;2023-04-06T05:21:55;-0.74;84.63
63051;SHT30;49136;47.416;19.402;2023-04-06T05:24:20;-0.61;83.49
63051;SHT30;49136;47.416;19.402;2023-04-06T05:26:46;-0.46;83.40
63051;SHT30;49136;47.416;19.402;2023-04-06T05:29:11;-0.35;81.92
63051;SHT30;49136;47.416;19.402;2023-04-06T05:31:37;-0.24;81.15
63051;SHT30;49136;47.416;19.402;2023-04-06T05:34:02;-0.13;81.24
63051;SHT30;49136;47.416;19.402;2023-04-06T05:36:28;0.01;81.13
63051;SHT30;49136;47.416;19.402;2023-04-06T05:38:53;0.17;81.19
63051;SHT30;49136;47.416;19.402;2023-04-06T05:41:20;0.24;80.43
63051;SHT30;49136;47.416;19.402;2023-04-06T05:43:45;0.44;79.48
63051;SHT30;49136;47.416;19.402;2023-04-06T05:46:11;0.66;78.79
63051;SHT30;49136;47.416;19.402;2023-04-06T05:48:36;0.85;78.77
63051;SHT30;49136;47.416;19.402;2023-04-06T05:51:02;1.07;78.78
63051;SHT30;49136;47.416;19.402;2023-04-06T05:53:31;1.26;79.01
63051;SHT30;49136;47.416;19.402;2023-04-06T05:55:57;1.42;77.65
63051;SHT30;49136;47.416;19.402;2023-04-06T05:58:22;1.60;76.61
63051;SHT30;49136;47.416;19.402;2023-04-06T06:00:47;1.71;74.69
63051;SHT30;49136;47.416;19.402;2023-04-06T06:03:13;1.95;75.53
63051;SHT30;49136;47.416;19.402;2023-04-06T06:05:38;2.08;73.44
63051;SHT30;49136;47.416;19.402;2023-04-06T06:08:04;2.25;72.59
63051;SHT30;49136;47.416;19.402;2023-04-06T06:10:30;2.40;73.17
63051;SHT30;49136;47.416;19.402;2023-04-06T06:12:55;2.77;73.33
63051;SHT30;49136;47.416;19.402;2023-04-06T06:15:21;2.92;69.48
63051;SHT30;49136;47.416;19.402;2023-04-06T06:17:46;2.62;68.38
63051;SHT30;49136;47.416;19.402;2023-04-06T06:20:12;3.03;69.01
63051;SHT30;49136;47.416;19.402;2023-04-06T06:22:37;3.33;68.19
63051;SHT30;49136;47.416;19.402;2023-04-06T06:25:03;3.66;69.34
63051;SHT30;49136;47.416;19.402;2023-04-06T06:27:28;3.96;68.23
63051;SHT30;49136;47.416;19.402;2023-04-06T06:29:54;4.31;66.90
63051;SHT30;49136;47.416;19.402;2023-04-06T06:32:20;4.28;64.35
63051;SHT30;49136;47.416;19.402;2023-04-06T06:34:45;4.42;63.90
63051;SHT30;49136;47.416;19.402;2023-04-06T06:37:11;4.44;64.68
63051;SHT30;49136;47.416;19.402;2023-04-06T06:39:36;4.55;64.59
63051;SHT30;49136;47.416;19.402;2023-04-06T06:42:02;4.68;64.89
63051;SHT30;49136;47.416;19.402;2023-04-06T06:44:28;4.77;64.63
63051;SHT30;49136;47.416;19.402;2023-04-06T06:46:53;4.75;66.16
63051;SHT30;49136;47.416;19.402;2023-04-06T06:49:19;5.05;65.84
63051;SHT30;49136;47.416;19.402;2023-04-06T06:51:45;5.19;64.74
63051;SHT30;49136;47.416;19.402;2023-04-06T06:54:11;5.36;65.04
63051;SHT30;49136;47.416;19.402;2023-04-06T06:56:37;5.15;64.33
63051;SHT30;49136;47.416;19.402;2023-04-06T06:59:03;5.46;64.35
63051;SHT30;49136;47.416;19.402;2023-04-06T07:01:29;5.59;62.92
63051;SHT30;49136;47.416;19.402;2023-04-06T07:03:54;5.29;63.52
63051;SHT30;49136;47.416;19.402;2023-04-06T07:06:20;5.66;64.07
63051;SHT30;49136;47.416;19.402;2023-04-06T07:08:46;5.45;62.97
63051;SHT30;49136;47.416;19.402;2023-04-06T07:11:11;5.15;62.44
63051;SHT30;49136;47.416;19.402;2023-04-06T07:13:37;5.59;61.25
63051;SHT30;49136;47.416;19.402;2023-04-06T07:16:02;5.93;62.98
63051;SHT30;49136;47.416;19.402;2023-04-06T07:18:28;6.12;60.40
63051;SHT30;49136;47.416;19.402;2023-04-06T07:20:53;6.29;59.81
63051;SHT30;49136;47.416;19.402;2023-04-06T07:23:19;6.34;60.50
63051;SHT30;49136;47.416;19.402;2023-04-06T07:25:44;6.36;60.44
63051;SHT30;49136;47.416;19.402;2023-04-06T07:28:10;6.60;58.84
63051;SHT30;49136;47.416;19.402;2023-04-06T07:30:37;6.82;58.88
63051;SHT30;49136;47.416;19.402;2023-04-06T07:33:02;6.78;57.85
63051;SHT30;49136;47.416;19.402;2023-04-06T07:35:28;6.80;57.68
63051;SHT30;49136;47.416;19.402;2023-04-06T07:37:55;6.85;57.76
63051;SHT30;49136;47.416;19.402;2023-04-06T07:40:21;6.92;58.34
63051;SHT30;49136;47.416;19.402;2023-04-06T07:42:47;6.78;56.65
63051;SHT30;49136;47.416;19.402;2023-04-06T07:45:12;6.80;58.42
63051;SHT30;49136;47.416;19.402;2023-04-06T07:47:38;7.27;56.91
63051;SHT30;49136;47.416;19.402;2023-04-06T07:50:04;7.40;54.49
63051;SHT30;49136;47.416;19.402;2023-04-06T07:52:30;7.61;54.38
63051;SHT30;49136;47.416;19.402;2023-04-06T07:54:57;7.44;53.03
63051;SHT30;49136;47.416;19.402;2023-04-06T07:57:23;7.46;53.56
63051;SHT30;49136;47.416;19.402;2023-04-06T07:59:48;7.38;52.79
63051;SHT30;49136;47.416;19.402;2023-04-06T08:02:14;6.98;54.42
63051;SHT30;49136;47.416;19.402;2023-04-06T08:04:39;6.93;54.21
63051;SHT30;49136;47.416;19.402;2023-04-06T08:07:05;7.55;55.49
63051;SHT30;49136;47.416;19.402;2023-04-06T08:09:30;7.30;51.34
63051;SHT30;49136;47.416;19.402;2023-04-06T08:11:56;7.61;53.40
63051;SHT30;49136;47.416;19.402;2023-04-06T08:14:21;8.11;52.59
63051;SHT30;49136;47.416;19.402;2023-04-06T08:16:46;8.52;52.18
63051;SHT30;49136;47.416;19.402;2023-04-06T08:19:12;8.24;51.11
63051;SHT30;49136;47.416;19.402;2023-04-06T08:21:37;8.83;52.22
63051;SHT30;49136;47.416;19.402;2023-04-06T08:24:04;9.08;52.04
63051;SHT30;49136;47.416;19.402;2023-04-06T08:26:31;9.14;48.46
63051;SHT30;49136;47.416;19.402;2023-04-06T08:28:56;8.46;49.07
63051;SHT30;49136;47.416;19.402;2023-04-06T08:31:22;8.37;48.99
63051;SHT30;49136;47.416;19.402;2023-04-06T08:33:47;8.30;50.54
63051;SHT30;49136;47.416;19.402;2023-04-06T08:36:14;8.79;49.55
63051;SHT30;49136;47.416;19.402;2023-04-06T08:38:40;9.36;48.46
63051;SHT30;49136;47.416;19.402;2023-04-06T08:41:09;10.04;48.25
63051;SHT30;49136;47.416;19.402;2023-04-06T08:44:04;9.86;47.36
63051;SHT30;49136;47.416;19.402;2023-04-06T08:46:30;9.20;46.34
63051;SHT30;49136;47.416;19.402;2023-04-06T08:48:58;9.83;49.33
63051;SHT30;49136;47.416;19.402;2023-04-06T08:51:25;9.39;46.13
63051;SHT30;49136;47.416;19.402;2023-04-06T08:53:54;9.04;48.64
63051;SHT30;49136;47.416;19.402;2023-04-06T08:56:21;9.24;47.42
63051;SHT30;49136;47.416;19.402;2023-04-06T08:58:48;9.49;49.47
63051;SHT30;49136;47.416;19.402;2023-04-06T09:01:14;9.73;47.68
63051;SHT30;49136;47.416;19.402;2023-04-06T09:03:42;9.95;48.02
63051;SHT30;49136;47.416;19.402;2023-04-06T09:06:09;9.60;46.13
63051;SHT30;49136;47.416;19.402;2023-04-06T09:08:35;10.21;46.84
63051;SHT30;49136;47.416;19.402;2023-04-06T09:11:04;8.35;44.61
63051;SHT30;49136;47.416;19.402;2023-04-06T09:13:30;7.99;46.24
63051;SHT30;49136;47.416;19.402;2023-04-06T09:18:33;8.58;47.14
63051;SHT30;49136;47.416;19.402;2023-04-06T09:21:03;9.35;47.16
63051;SHT30;49136;47.416;19.402;2023-04-06T09:23:29;9.42;49.07
63051;SHT30;49136;47.416;19.402;2023-04-06T09:26:11;9.69;46.96
63051;SHT30;49136;47.416;19.402;2023-04-06T09:28:49;10.19;46.15
63051;SHT30;49136;47.416;19.402;2023-04-06T09:31:17;10.11;45.77
63051;SHT30;49136;47.416;19.402;2023-04-06T09:33:46;9.40;45.50
63051;SHT30;49136;47.416;19.402;2023-04-06T09:36:12;10.18;46.95
63051;SHT30;49136;47.416;19.402;2023-04-06T09:38:52;10.70;46.51
63051;SHT30;49136;47.416;19.402;2023-04-06T09:41:26;10.92;46.24
63051;SHT30;49136;47.416;19.402;2023-04-06T09:44:02;10.48;46.23
63051;SHT30;49136;47.416;19.402;2023-04-06T09:46:31;10.11;45.22
63051;SHT30;49136;47.416;19.402;2023-04-06T09:48:57;9.94;46.94
63051;SHT30;49136;47.416;19.402;2023-04-06T09:51:23;9.25;44.12
63051;SHT30;49136;47.416;19.402;2023-04-06T09:53:52;10.09;45.94
63051;SHT30;49136;47.416;19.402;2023-04-06T09:56:23;10.46;46.58
63051;SHT30;49136;47.416;19.402;2023-04-06T09:58:54;10.73;45.35
63051;SHT30;49136;47.416;19.402;2023-04-06T10:01:21;10.84;44.58
63051;SHT30;49136;47.416;19.402;2023-04-06T10:03:59;10.43;45.18
63051;SHT30;49136;47.416;19.402;2023-04-06T10:06:28;10.35;45.51
63051;SHT30;49136;47.416;19.402;2023-04-06T10:08:58;10.90;46.38
63051;SHT30;49136;47.416;19.402;2023-04-06T10:11:24;9.83;44.93
63051;SHT30;49136;47.416;19.402;2023-04-06T10:13:50;8.80;44.90
63051;SHT30;49136;47.416;19.402;2023-04-06T10:16:16;8.56;45.66
63051;SHT30;49136;47.416;19.402;2023-04-06T10:18:50;9.64;48.73
63051;SHT30;49136;47.416;19.402;2023-04-06T10:21:23;9.18;46.16
63051;SHT30;49136;47.416;19.402;2023-04-06T10:23:52;8.75;45.35
63051;SHT30;49136;47.416;19.402;2023-04-06T10:26:22;8.19;45.35
63051;SHT30;49136;47.416;19.402;2023-04-06T10:28:49;9.15;48.03
63051;SHT30;49136;47.416;19.402;2023-04-06T10:31:14;8.17;46.32
63051;SHT30;49136;47.416;19.402;2023-04-06T10:33:40;9.03;45.86
63051;SHT30;49136;47.416;19.402;2023-04-06T10:36:22;9.43;46.33
63051;SHT30;49136;47.416;19.402;2023-04-06T10:38:54;9.80;45.81
63051;SHT30;49136;47.416;19.402;2023-04-06T10:41:20;9.20;46.22
63051;SHT30;49136;47.416;19.402;2023-04-06T10:43:55;8.51;47.81
63051;SHT30;49136;47.416;19.402;2023-04-06T10:46:28;9.08;47.08
63051;SHT30;49136;47.416;19.402;2023-04-06T10:48:54;8.81;46.08
63051;SHT30;49136;47.416;19.402;2023-04-06T10:51:26;8.94;46.62
63051;SHT30;49136;47.416;19.402;2023-04-06T10:53:53;8.28;46.25
63051;SHT30;49136;47.416;19.402;2023-04-06T10:56:22;8.58;47.38
63051;SHT30;49136;47.416;19.402;2023-04-06T10:58:51;9.70;44.98
63051;SHT30;49136;47.416;19.402;2023-04-06T11:01:18;9.36;45.21
63051;SHT30;49136;47.416;19.402;2023-04-06T11:03:45;9.18;45.27
63051;SHT30;49136;47.416;19.402;2023-04-06T11:06:10;8.55;46.46
63051;SHT30;49136;47.416;19.402;2023-04-06T11:08:36;9.08;46.78
63051;SHT30;49136;47.416;19.402;2023-04-06T11:11:11;9.32;47.33
63051;SHT30;49136;47.416;19.402;2023-04-06T11:13:53;9.49;46.42
63051;SHT30;49136;47.416;19.402;2023-04-06T11:21:16;9.15;43.67
63051;SHT30;49136;47.416;19.402;2023-04-06T11:23:43;9.60;43.42
63051;SHT30;49136;47.416;19.402;2023-04-06T11:26:13;10.29;44.28
63051;SHT30;49136;47.416;19.402;2023-04-06T11:28:41;9.59;43.13
63051;SHT30;49136;47.416;19.402;2023-04-06T11:31:09;9.45;45.45
63051;SHT30;49136;47.416;19.402;2023-04-06T11:33:36;9.50;44.97
63051;SHT30;49136;47.416;19.402;2023-04-06T11:36:03;8.91;44.72
63051;SHT30;49136;47.416;19.402;2023-04-06T11:38:29;9.24;45.17
63051;SHT30;49136;47.416;19.402;2023-04-06T11:40:55;9.46;45.50
63051;SHT30;49136;47.416;19.402;2023-04-06T11:43:30;8.81;44.77
63051;SHT30;49136;47.416;19.402;2023-04-06T11:46:03;9.45;44.54
63051;SHT30;49136;47.416;19.402;2023-04-06T11:48:29;8.90;45.04
63051;SHT30;49136;47.416;19.402;2023-04-06T11:50:59;8.54;44.54
63051;SHT30;49136;47.416;19.402;2023-04-06T11:53:30;8.49;45.37
63051;SHT30;49136;47.416;19.402;2023-04-06T11:55:56;8.40;45.15
63051;SHT30;49136;47.416;19.402;2023-04-06T11:58:22;8.75;43.91
63051;SHT30;49136;47.416;19.402;2023-04-06T12:00:47;8.21;46.51
63051;SHT30;49136;47.416;19.402;2023-04-06T12:03:13;8.45;44.73
63051;SHT30;49136;47.416;19.402;2023-04-06T12:05:39;8.75;45.11
63051;SHT30;49136;47.416;19.402;2023-04-06T12:08:05;8.97;45.50
63051;SHT30;49136;47.416;19.402;2023-04-06T12:10:30;8.91;45.32
63051;SHT30;49136;47.416;19.402;2023-04-06T12:12:56;8.68;46.91
63051;SHT30;49136;47.416;19.402;2023-04-06T12:15:21;8.55;46.85
63051;SHT30;49136;47.416;19.402;2023-04-06T12:17:47;8.69;45.48
63051;SHT30;49136;47.416;19.402;2023-04-06T12:20:12;9.04;48.63
63051;SHT30;49136;47.416;19.402;2023-04-06T12:22:39;7.94;48.62
63051;SHT30;49136;47.416;19.402;2023-04-06T12:25:05;8.06;50.17
63051;SHT30;49136;47.416;19.402;2023-04-06T12:27:32;7.37;54.76
63051;SHT30;49136;47.416;19.402;2023-04-06T12:29:57;7.03;55.37
63051;SHT30;49136;47.416;19.402;2023-04-06T12:32:22;7.20;54.82
63051;SHT30;49136;47.416;19.402;2023-04-06T12:34:48;7.23;54.66
63051;SHT30;49136;47.416;19.402;2023-04-06T12:37:13;7.57;54.30
63051;SHT30;49136;47.416;19.402;2023-04-06T12:39:39;7.96;53.25
63051;SHT30;49136;47.416;19.402;2023-04-06T12:42:04;7.82;51.81
63051;SHT30;49136;47.416;19.402;2023-04-06T12:44:30;7.87;51.69
63051;SHT30;49136;47.416;19.402;2023-04-06T12:46:55;7.72;52.76
63051;SHT30;49136;47.416;19.402;2023-04-06T12:49:21;7.47;53.89
63051;SHT30;49136;47.416;19.402;2023-04-06T12:51:47;7.52;54.58
63051;SHT30;49136;47.416;19.402;2023-04-06T12:54:12;7.61;54.34
63051;SHT30;49136;47.416;19.402;2023-04-06T12:56:38;7.51;53.93
63051;SHT30;49136;47.416;19.402;2023-04-06T12:59:03;6.89;55.12
63051;SHT30;49136;47.416;19.402;2023-04-06T13:01:29;7.64;55.05
63051;SHT30;49136;47.416;19.402;2023-04-06T13:03:56;7.96;54.75
63051;SHT30;49136;47.416;19.402;2023-04-06T13:06:21;7.38;54.11
63051;SHT30;49136;47.416;19.402;2023-04-06T13:08:47;7.30;56.10
63051;SHT30;49136;47.416;19.402;2023-04-06T13:11:15;7.24;55.71
63051;SHT30;49136;47.416;19.402;2023-04-06T13:13:40;7.06;55.94
63051;SHT30;49136;47.416;19.402;2023-04-06T13:16:08;7.72;56.20
63051;SHT30;49136;47.416;19.402;2023-04-06T13:18:34;7.62;56.82
63051;SHT30;49136;47.416;19.402;2023-04-06T13:20:59;7.87;56.41
63051;SHT30;49136;47.416;19.402;2023-04-06T13:23:26;7.76;56.03
63051;SHT30;49136;47.416;19.402;2023-04-06T13:28:24;7.12;59.06
63051;SHT30;49136;47.416;19.402;2023-04-06T13:30:51;7.00;59.29
63051;SHT30;49136;47.416;19.402;2023-04-06T13:33:16;7.41;58.09
63051;SHT30;49136;47.416;19.402;2023-04-06T13:35:44;7.74;56.94
63051;SHT30;49136;47.416;19.402;2023-04-06T13:38:10;8.26;56.69
63051;SHT30;49136;47.416;19.402;2023-04-06T13:40:38;7.90;55.75
63051;SHT30;49136;47.416;19.402;2023-04-06T13:43:05;8.20;56.94
63051;SHT30;49136;47.416;19.402;2023-04-06T13:45:30;8.48;56.87
63051;SHT30;49136;47.416;19.402;2023-04-06T13:47:56;8.59;55.70
63051;SHT30;49136;47.416;19.402;2023-04-06T13:50:21;7.90;56.34
63051;SHT30;49136;47.416;19.402;2023-04-06T13:52:46;7.83;56.41
63051;SHT30;49136;47.416;19.402;2023-04-06T13:55:12;7.30;57.54
63051;SHT30;49136;47.416;19.402;2023-04-06T13:57:37;7.46;57.94
63051;SHT30;49136;47.416;19.402;2023-04-06T14:00:03;7.23;57.04
63051;SHT30;49136;47.416;19.402;2023-04-06T14:02:29;7.86;57.47
63051;SHT30;49136;47.416;19.402;2023-04-06T14:04:54;7.43;58.06
63051;SHT30;49136;47.416;19.402;2023-04-06T14:07:21;7.20;57.86
63051;SHT30;49136;47.416;19.402;2023-04-06T14:09:47;7.00;58.58
63051;SHT30;49136;47.416;19.402;2023-04-06T14:12:12;7.20;58.41
63051;SHT30;49136;47.416;19.402;2023-04-06T14:14:38;7.13;58.89
63051;SHT30;49136;47.416;19.402;2023-04-06T14:17:03;7.28;58.28
63051;SHT30;49136;47.416;19.402;2023-04-06T14:19:28;7.67;59.64
63051;SHT30;49136;47.416;19.402;2023-04-06T14:21:54;7.79;57.54
63051;SHT30;49136;47.416;19.402;2023-04-06T14:24:20;7.33;59.73
63051;SHT30;49136;47.416;19.402;2023-04-06T14:26:45;7.19;62.91
63051;SHT30;49136;47.416;19.402;2023-04-06T14:29:11;6.96;63.71
63051;SHT30;49136;47.416;19.402;2023-04-06T14:31:37;6.67;64.18
63051;SHT30;49136;47.416;19.402;2023-04-06T14:34:03;6.68;63.49
63051;SHT30;49136;47.416;19.402;2023-04-06T14:36:31;6.85;65.08
63051;SHT30;49136;47.416;19.402;2023-04-06T14:39:02;6.71;65.04
63051;SHT30;49136;47.416;19.402;2023-04-06T14:41:30;6.43;65.85
63051;SHT30;49136;47.416;19.402;2023-04-06T14:43:56;6.70;66.40
63051;SHT30;49136;47.416;19.402;2023-04-06T14:46:21;7.06;66.37
63051;SHT30;49136;47.416;19.402;2023-04-06T14:48:47;6.68;63.91
63051;SHT30;49136;47.416;19.402;2023-04-06T14:51:13;5.74;66.91
63051;SHT30;49136;47.416;19.402;2023-04-06T14:53:38;6.02;67.22
63051;SHT30;49136;47.416;19.402;2023-04-06T14:56:04;6.30;68.82
63051;SHT30;49136;47.416;19.402;2023-04-06T14:58:30;6.50;66.96
63051;SHT30;49136;47.416;19.402;2023-04-06T15:00:59;6.56;65.60
63051;SHT30;49136;47.416;19.402;2023-04-06T15:03:26;6.56;65.56
63051;SHT30;49136;47.416;19.402;2023-04-06T15:05:52;6.49;64.13
63051;SHT30;49136;47.416;19.402;2023-04-06T15:08:18;6.51;64.11
63051;SHT30;49136;47.416;19.402;2023-04-06T15:10:46;6.73;64.37
63051;SHT30;49136;47.416;19.402;2023-04-06T15:13:12;6.91;64.99
63051;SHT30;49136;47.416;19.402;2023-04-06T15:15:37;7.02;63.81
63051;SHT30;49136;47.416;19.402;2023-04-06T15:18:03;7.09;64.63
63051;SHT30;49136;47.416;19.402;2023-04-06T15:20:29;6.84;63.43
63051;SHT30;49136;47.416;19.402;2023-04-06T15:22:54;6.80;64.04
63051;SHT30;49136;47.416;19.402;2023-04-06T15:25:20;6.93;64.68
63051;SHT30;49136;47.416;19.402;2023-04-06T15:27:45;6.87;63.29
63051;SHT30;49136;47.416;19.402;2023-04-06T15:30:11;6.84;63.76